Time;durP1;ratioP1;P1;durP2;ratioP2;P2;SDS_P1;SDS_P2;PMS_P1;PMS_P2;Temp;Humidity;BMP_temperature;BMP_pressure;BME280_temperature;BME280_humidity;BME280_pressure;Samples;Min_cycle;Max_cycle;Signal;HPM_P1;HPM_P2
2023/01/19 05:30:50;;;;;;;;;16.75;12.25;;;;;4.13;70.69;100426.00;5010788;28;46591;-76
2023/01/19 05:33:16;;;;;;;;;11.25;11.25;;;;;3.99;70.71;100414.88;5015205;28;45949;-78
2023/01/19 05:35:41;;;;;;;;;17.75;14.00;;;;;4.01;71.49;100426.28;5015074;28;45412;-78
2023/01/19 05:38:06;;;;;;;;;14.25;8.50;;;;;4.05;71.03;100427.97;5015821;28;45290;-78
2023/01/19 05:40:32;;;;;;;;;12.00;11.00;;;;;4.01;71.09;100431.59;5015131;28;45515;-78
2023/01/19 05:43:00;;;;;;;;;10.25;10.25;;;;;3.93;71.04;100422.94;5014831;28;45445;-77
2023/01/19 05:45:27;;;;;;;;;6.50;6.50;;;;;3.91;71.13;100417.72;5013709;28;45316;-78
2023/01/19 05:47:53;;;;;;;;;16.50;11.50;;;;;3.78;71.64;100397.69;4997376;28;45339;-79
2023/01/19 05:50:19;;;;;;;;;12.75;11.75;;;;;4.04;71.34;100435.06;5015132;28;45371;-77
2023/01/19 05:52:45;;;;;;;;;16.50;15.50;;;;;3.91;71.41;100415.06;5015236;28;45465;-78
2023/01/19 05:55:10;;;;;;;;;12.50;11.75;;;;;3.79;71.81;100388.81;5015032;28;45492;-77
2023/01/19 05:57:36;;;;;;;;;16.25;16.00;;;;;4.05;71.72;100430.63;5015195;28;45423;-76
2023/01/19 06:00:03;;;;;;;;;16.50;11.25;;;;;4.05;71.88;100436.81;5015162;28;45518;-77
2023/01/19 06:02:29;;;;;;;;;11.75;9.25;;;;;4.06;71.85;100435.03;5015462;28;47549;-77
2023/01/19 06:04:55;;;;;;;;;11.50;11.50;;;;;3.86;71.67;100401.03;5015255;28;45479;-78
2023/01/19 06:07:21;;;;;;;;;13.50;11.50;;;;;4.09;71.49;100435.81;5015509;28;45338;-80
2023/01/19 06:09:46;;;;;;;;;12.25;12.25;;;;;4.11;71.76;100431.34;5014927;28;45340;-77
2023/01/19 06:12:11;;;;;;;;;10.25;10.25;;;;;4.17;71.08;100428.53;5014804;28;46051;-77
2023/01/19 06:14:37;;;;;;;;;12.25;9.50;;;;;4.22;70.74;100430.22;5014841;28;45317;-77
2023/01/19 06:17:04;;;;;;;;;12.00;12.00;;;;;4.22;70.91;100435.53;5015212;28;45324;-75
2023/01/19 06:19:30;;;;;;;;;10.00;8.25;;;;;4.14;71.15;100425.09;5014351;28;45618;-76
2023/01/19 06:21:55;;;;;;;;;15.75;10.75;;;;;4.08;71.08;100410.19;5014957;28;45463;-76
2023/01/19 06:24:21;;;;;;;;;20.75;12.25;;;;;4.26;70.78;100427.44;5014898;28;45388;-74
2023/01/19 06:26:47;;;;;;;;;12.25;9.00;;;;;4.18;70.96;100430.28;5014844;28;45273;-72
2023/01/19 06:29:13;;;;;;;;;9.00;8.25;;;;;4.19;71.48;100436.47;5014171;28;45555;-76
2023/01/19 06:31:39;;;;;;;;;8.50;6.00;;;;;4.21;71.24;100447.91;5014277;28;45400;-75
2023/01/19 06:34:04;;;;;;;;;7.50;7.50;;;;;4.03;71.39;100397.97;5014832;28;45542;-77
2023/01/19 06:36:29;;;;;;;;;12.00;8.75;;;;;4.25;70.93;100441.63;5014943;28;45304;-76
2023/01/19 06:38:55;;;;;;;;;12.75;10.00;;;;;3.95;70.73;100405.22;4996796;28;45350;-77
2023/01/19 06:41:20;;;;;;;;;10.75;8.25;;;;;4.10;71.11;100426.94;5014420;28;45396;-77
2023/01/19 06:43:45;;;;;;;;;10.25;8.25;;;;;4.24;71.25;100449.63;5012610;28;45991;-76
2023/01/19 06:46:12;;;;;;;;;9.25;9.00;;;;;3.98;70.89;100427.25;5014808;28;45379;-76
2023/01/19 06:48:37;;;;;;;;;9.25;8.00;;;;;4.07;71.33;100442.97;5014362;28;45677;-73
2023/01/19 06:51:04;;;;;;;;;9.50;9.00;;;;;4.13;70.86;100442.78;5013926;28;45444;-78
2023/01/19 06:53:30;;;;;;;;;9.00;8.00;;;;;4.05;71.09;100430.63;5014331;28;45479;-76
2023/01/19 06:56:00;;;;;;;;;8.00;8.00;;;;;4.25;70.85;100456.69;5014277;28;45349;-79
2023/01/19 06:58:26;;;;;;;;;10.50;10.50;;;;;4.26;70.72;100459.28;5014281;28;45309;-77
2023/01/19 07:00:51;;;;;;;;;9.50;8.00;;;;;4.23;70.80;100442.56;5014271;28;46580;-79
2023/01/19 07:03:20;;;;;;;;;9.25;7.75;;;;;4.01;70.42;100410.38;5013047;28;45440;-79
2023/01/19 07:05:49;;;;;;;;;7.00;6.00;;;;;4.02;70.53;100405.03;5014807;28;45280;-79
2023/01/19 07:08:15;;;;;;;;;5.00;5.00;;;;;4.12;70.15;100421.59;4995850;28;45708;-78
2023/01/19 07:10:40;;;;;;;;;5.00;5.00;;;;;4.34;70.25;100457.28;5014048;28;45566;-78
2023/01/19 07:13:05;;;;;;;;;8.75;6.00;;;;;4.17;70.70;100439.16;5014087;28;45416;-78
2023/01/19 07:15:31;;;;;;;;;6.00;4.25;;;;;4.30;70.58;100450.34;5014491;28;45478;-78
2023/01/19 07:17:57;;;;;;;;;7.00;4.75;;;;;4.20;70.58;100430.25;5013911;28;45652;-76
2023/01/19 07:20:23;;;;;;;;;5.00;5.00;;;;;4.35;70.13;100453.72;5014053;28;46042;-77
2023/01/19 07:22:54;;;;;;;;;12.25;8.00;;;;;4.27;70.43;100431.84;5017427;28;45305;-75
2023/01/19 07:25:20;;;;;;;;;9.00;7.50;;;;;4.28;70.23;100453.94;5015618;28;45351;-76
2023/01/19 07:27:45;;;;;;;;;11.50;9.00;;;;;4.29;70.51;100447.72;5016746;28;45363;-76
2023/01/19 07:30:11;;;;;;;;;9.25;9.00;;;;;4.34;70.21;100440.53;5017490;28;46051;-76
2023/01/19 07:32:37;;;;;;;;;9.25;9.00;;;;;4.31;70.14;100424.69;4999168;28;45436;-76
2023/01/19 07:35:03;;;;;;;;;8.50;8.50;;;;;4.48;69.68;100444.56;5016987;28;45378;-75
2023/01/19 07:37:28;;;;;;;;;10.25;8.00;;;;;4.51;69.51;100448.91;5016830;28;45395;-76
2023/01/19 07:39:53;;;;;;;;;15.00;11.25;;;;;4.56;69.87;100445.25;5017540;28;46963;-76
2023/01/19 07:42:19;;;;;;;;;13.75;13.25;;;;;4.55;69.46;100445.28;5016677;28;45642;-78
2023/01/19 07:44:44;;;;;;;;;13.50;11.00;;;;;4.57;69.57;100444.34;5016368;28;45317;-78
2023/01/19 07:47:11;;;;;;;;;13.50;11.25;;;;;4.70;69.50;100457.25;5016871;28;45533;-76
2023/01/19 07:49:37;;;;;;;;;16.00;12.00;;;;;4.76;69.51;100459.78;5016891;28;46984;-77
2023/01/19 07:52:03;;;;;;;;;14.75;12.50;;;;;4.60;69.02;100430.09;5016673;28;45238;-77
2023/01/19 07:54:28;;;;;;;;;20.00;13.00;;;;;4.76;69.13;100471.28;5018427;28;45412;-73
2023/01/19 07:56:54;;;;;;;;;11.50;10.75;;;;;4.80;68.64;100464.94;4999285;28;45509;-73
2023/01/19 07:59:19;;;;;;;;;13.00;13.00;;;;;4.79;68.49;100467.66;5017146;28;46242;-76
2023/01/19 08:01:45;;;;;;;;;18.00;13.25;;;;;4.79;68.60;100480.91;5011708;28;45510;-77
2023/01/19 08:04:10;;;;;;;;;10.00;9.25;;;;;4.80;68.34;100475.56;5023917;28;45438;-75
2023/01/19 08:06:38;;;;;;;;;16.50;13.75;;;;;4.78;68.46;100476.53;5014890;28;45471;-75
2023/01/19 08:09:05;;;;;;;;;7.00;5.75;;;;;4.59;68.22;100444.28;5016560;28;46254;-77
2023/01/19 08:11:32;;;;;;;;;12.50;12.00;;;;;4.68;68.61;100478.53;5016522;28;45483;-77
2023/01/19 08:13:57;;;;;;;;;12.50;12.50;;;;;4.58;68.74;100463.78;5017191;28;45347;-77
2023/01/19 08:16:23;;;;;;;;;9.00;9.00;;;;;4.51;68.43;100448.91;5016725;28;45400;-76
2023/01/19 08:18:48;;;;;;;;;15.25;13.50;;;;;4.70;68.47;100479.38;5020744;28;45848;-76
2023/01/19 08:21:14;;;;;;;;;17.75;13.00;;;;;4.69;68.38;100482.94;5016780;28;45491;-76
2023/01/19 08:23:39;;;;;;;;;17.25;13.00;;;;;4.80;68.76;100490.63;5017586;28;45372;-76
2023/01/19 08:26:29;;;;;;;;;11.25;11.25;;;;;4.71;68.43;100478.47;5015497;28;45284;-76
2023/01/19 08:28:56;;;;;;;;;15.50;14.75;;;;;4.68;68.33;100475.88;5017537;28;45946;-76
2023/01/19 08:31:22;;;;;;;;;19.50;13.75;;;;;4.82;68.55;100488.81;5002896;28;45401;-75
2023/01/19 08:33:48;;;;;;;;;13.25;11.75;;;;;4.82;68.04;100480.84;5012591;28;45415;-77
2023/01/19 08:36:15;;;;;;;;;7.25;6.00;;;;;4.86;68.20;100486.03;4998276;28;46157;-76
2023/01/19 08:38:42;;;;;;;;;12.75;11.25;;;;;4.91;67.98;100491.22;5016765;28;46268;-76
2023/01/19 08:41:09;;;;;;;;;19.00;11.75;;;;;4.77;67.73;100470.34;5016128;28;46092;-76
2023/01/19 08:43:34;;;;;;;;;16.00;13.00;;;;;4.88;68.50;100486.00;5015832;28;45564;-76
2023/01/19 08:46:00;;;;;;;;;13.25;12.75;;;;;4.89;68.68;100469.16;5016476;28;45519;-75
2023/01/19 08:48:25;;;;;;;;;18.50;16.25;;;;;5.06;68.20;100484.63;5015681;28;45298;-76
2023/01/19 08:50:51;;;;;;;;;26.25;21.75;;;;;5.12;67.72;100492.41;5016497;28;45504;-78
2023/01/19 08:53:19;;;;;;;;;14.75;13.00;;;;;4.95;67.44;100461.00;5016207;28;45574;-77
2023/01/19 08:55:45;;;;;;;;;17.75;17.00;;;;;5.14;67.95;100495.91;5016115;28;45466;-78
2023/01/19 08:58:10;;;;;;;;;23.00;19.75;;;;;5.08;67.91;100480.16;5015956;28;46028;-76
2023/01/19 09:00:38;;;;;;;;;23.25;19.25;;;;;5.12;67.63;100487.09;5016358;28;45310;-75
2023/01/19 09:03:05;;;;;;;;;18.25;14.25;;;;;5.16;67.26;100500.28;5015545;28;45338;-77
2023/01/19 09:05:34;;;;;;;;;19.00;17.00;;;;;5.06;67.64;100509.41;5026670;28;45711;-76
2023/01/19 09:08:01;;;;;;;;;19.75;17.75;;;;;4.92;68.01;100507.13;5015819;28;46068;-74
2023/01/19 09:10:34;;;;;;;;;21.00;17.00;;;;;4.88;68.47;100504.59;5017517;28;45493;-76
2023/01/19 09:13:03;;;;;;;;;21.75;20.00;;;;;4.92;67.96;100504.47;5006990;28;45499;-75
2023/01/19 09:15:31;;;;;;;;;21.25;18.00;;;;;4.95;67.83;100507.03;5010994;28;45524;-75
2023/01/19 09:17:56;;;;;;;;;17.00;17.00;;;;;5.00;67.95;100504.28;5010070;28;46333;-76
2023/01/19 09:20:22;;;;;;;;;19.25;15.00;;;;;5.01;67.50;100490.06;5006414;28;45523;-77
2023/01/19 09:22:47;;;;;;;;;16.75;16.75;;;;;4.99;67.90;100501.66;5013913;28;45409;-77
2023/01/19 09:25:13;;;;;;;;;16.25;15.75;;;;;4.87;67.41;100463.88;5016652;28;45463;-76
2023/01/19 09:27:38;;;;;;;;;24.50;22.25;;;;;5.17;67.70;100494.06;5015808;28;45339;-76
2023/01/19 09:30:05;;;;;;;;;25.00;19.75;;;;;5.25;67.64;100491.19;5015951;28;45355;-76
2023/01/19 09:32:31;;;;;;;;;26.00;25.75;;;;;5.34;67.58;100501.56;5015868;28;45276;-75
2023/01/19 09:34:57;;;;;;;;;26.25;25.50;;;;;5.26;67.04;100466.34;4997640;28;46214;-74
2023/01/19 09:37:22;;;;;;;;;22.75;22.75;;;;;5.52;66.88;100502.81;4993784;28;46692;-75
2023/01/19 09:39:47;;;;;;;;;31.00;25.25;;;;;5.46;66.46;100489.69;5005878;28;45427;-77
2023/01/19 09:42:22;;;;;;;;;23.75;22.25;;;;;5.56;66.83;100494.69;5015597;28;45397;-76
2023/01/19 09:44:49;;;;;;;;;26.00;23.25;;;;;5.51;66.40;100499.28;5014489;28;45412;-76
2023/01/19 09:47:20;;;;;;;;;28.25;24.50;;;;;5.54;66.30;100499.16;5015328;28;46044;-78
2023/01/19 09:49:52;;;;;;;;;26.25;20.75;;;;;5.59;66.54;100497.25;5015485;28;45458;-74
2023/01/19 09:52:19;;;;;;;;;25.00;20.50;;;;;5.62;66.04;100489.19;5015466;28;45422;-76
2023/01/19 09:55:03;;;;;;;;;28.00;23.75;;;;;5.65;66.26;100502.41;5008976;28;45536;-75
2023/01/19 09:57:29;;;;;;;;;29.25;21.75;;;;;5.76;66.04;100511.84;5003926;28;46114;-75
2023/01/19 09:59:58;;;;;;;;;21.25;21.25;;;;;5.78;65.87;100510.91;5015209;28;45551;-75
2023/01/19 10:02:23;;;;;;;;;34.75;26.00;;;;;5.83;65.89;100497.44;5014306;28;45457;-77
2023/01/19 10:04:59;;;;;;;;;30.00;24.00;;;;;5.70;65.43;100479.19;5014735;28;45348;-75
2023/01/19 10:07:51;;;;;;;;;26.50;22.25;;;;;5.82;65.55;100504.53;5014763;28;46167;-75
2023/01/19 10:10:29;;;;;;;;;32.50;23.50;;;;;5.80;65.43;100517.00;5014936;28;45450;-75
2023/01/19 10:13:20;;;;;;;;;27.00;24.00;;;;;5.75;65.65;100510.97;5014972;28;45219;-75
2023/01/19 10:16:04;;;;;;;;;31.00;22.50;;;;;5.73;65.87;100510.16;5013463;28;46190;-75
2023/01/19 10:18:51;;;;;;;;;27.25;25.25;;;;;5.77;66.16;100506.50;5020049;28;45590;-75
2023/01/19 10:21:23;;;;;;;;;31.00;25.75;;;;;5.73;66.43;100512.81;5013850;28;45418;-75
2023/01/19 10:23:51;;;;;;;;;28.50;23.25;;;;;5.78;66.55;100512.69;5014864;28;45499;-76
2023/01/19 10:26:22;;;;;;;;;32.75;26.00;;;;;5.83;66.34;100510.75;4997014;28;46459;-75
2023/01/19 10:28:52;;;;;;;;;33.00;29.75;;;;;5.89;66.21;100503.47;5015260;28;46245;-79
2023/01/19 10:31:22;;;;;;;;;26.50;25.75;;;;;5.92;65.74;100499.84;5015169;28;45341;-76
2023/01/19 10:33:51;;;;;;;;;27.50;21.50;;;;;5.85;65.78;100471.66;5019699;28;45523;-77
2023/01/19 10:36:27;;;;;;;;;20.50;19.50;;;;;5.98;65.91;100492.56;5014843;28;45329;-74
2023/01/19 10:38:52;;;;;;;;;28.50;26.25;;;;;5.95;65.47;100473.16;5014870;28;45349;-76
2023/01/19 10:41:34;;;;;;;;;28.25;26.75;;;;;6.07;65.79;100483.41;5001254;28;45358;-75
2023/01/19 10:44:02;;;;;;;;;29.00;27.25;;;;;6.12;65.45;100483.28;5015068;28;45525;-76
2023/01/19 10:46:48;;;;;;;;;31.25;26.75;;;;;6.17;65.40;100486.66;5014680;28;45395;-74
2023/01/19 10:49:25;;;;;;;;;28.25;24.25;;;;;6.24;65.04;100489.06;5013823;28;46072;-77
2023/01/19 10:51:52;;;;;;;;;25.00;22.75;;;;;6.15;65.46;100461.88;5014433;28;45523;-76
2023/01/19 10:54:19;;;;;;;;;28.50;28.50;;;;;6.31;65.37;100473.75;5000234;28;45435;-76
2023/01/19 10:57:00;;;;;;;;;33.00;30.50;;;;;6.26;64.91;100470.38;5009401;28;45452;-77
2023/01/19 10:59:49;;;;;;;;;31.00;24.25;;;;;6.35;65.43;100476.28;5012499;28;46613;-77
2023/01/19 11:02:17;;;;;;;;;21.25;19.50;;;;;6.41;64.83;100464.56;5014737;28;45485;-76
2023/01/19 11:04:44;;;;;;;;;25.75;20.75;;;;;6.45;64.84;100475.06;5014447;28;45374;-75
2023/01/19 11:07:24;;;;;;;;;35.00;30.00;;;;;6.49;65.15;100473.16;5013553;28;45985;-77
2023/01/19 11:10:10;;;;;;;;;26.50;23.75;;;;;6.53;64.85;100468.59;5013822;28;45488;-77
2023/01/19 11:12:39;;;;;;;;;20.25;20.25;;;;;6.41;64.70;100457.44;5013956;28;45720;-76
2023/01/19 11:15:14;;;;;;;;;32.50;29.00;;;;;6.49;64.66;100465.16;5014668;28;45383;-76
2023/01/19 11:17:44;;;;;;;;;28.75;25.00;;;;;6.42;65.10;100461.84;5014444;28;45396;-75
2023/01/19 11:20:20;;;;;;;;;27.75;24.75;;;;;6.47;64.67;100464.34;4996435;28;47279;-77
2023/01/19 11:22:46;;;;;;;;;25.50;23.00;;;;;6.24;64.69;100441.16;5014353;28;45400;-76
2023/01/19 11:25:26;;;;;;;;;31.75;27.50;;;;;6.28;65.37;100455.25;4996720;28;45428;-77
2023/01/19 11:27:51;;;;;;;;;27.75;26.75;;;;;6.26;65.37;100463.28;5014804;28;45339;-77
2023/01/19 11:30:23;;;;;;;;;31.25;28.25;;;;;6.31;65.35;100460.44;5015623;28;45376;-79
2023/01/19 11:32:49;;;;;;;;;27.50;26.75;;;;;6.36;65.33;100455.84;5013946;28;45505;-76
2023/01/19 11:36:00;;;;;;;;;36.75;32.00;;;;;6.27;66.02;100450.84;5015453;28;45443;-77
2023/01/19 11:38:26;;;;;;;;;38.50;35.00;;;;;6.38;65.78;100456.69;4953133;28;45373;-75
2023/01/19 11:40:55;;;;;;;;;31.00;27.50;;;;;6.22;65.98;100428.81;4953375;28;46374;-77
2023/01/19 11:43:24;;;;;;;;;26.50;23.00;;;;;6.30;66.27;100451.59;4975689;28;45543;-77
2023/01/19 11:45:50;;;;;;;;;34.25;29.00;;;;;6.35;65.68;100452.31;5003719;28;45290;-76
2023/01/19 11:48:29;;;;;;;;;32.25;27.00;;;;;6.28;66.33;100432.16;5017643;28;45403;-75
2023/01/19 11:50:59;;;;;;;;;27.75;21.00;;;;;6.41;65.82;100444.13;5018357;28;46171;-78
2023/01/19 11:53:32;;;;;;;;;27.25;23.00;;;;;6.33;65.48;100427.53;5010047;28;45684;-79
2023/01/19 11:56:00;;;;;;;;;22.25;22.25;;;;;6.37;65.94;100434.50;5018566;28;44809;-75
2023/01/19 11:58:26;;;;;;;;;24.25;23.75;;;;;6.35;66.21;100423.03;5016734;28;45421;-77
2023/01/19 12:01:05;;;;;;;;;23.50;21.25;;;;;6.20;65.77;100417.34;5022977;28;45491;-78
2023/01/19 12:03:36;;;;;;;;;18.00;15.50;;;;;6.17;66.22;100422.78;5016122;28;45490;-80
2023/01/19 12:06:15;;;;;;;;;19.75;17.75;;;;;6.28;66.45;100421.50;5036666;28;44847;-80
2023/01/19 12:08:46;;;;;;;;;19.50;18.50;;;;;6.32;66.09;100425.78;5024766;28;45503;-77
2023/01/19 12:11:20;;;;;;;;;15.25;11.00;;;;;6.18;65.90;100385.47;5021299;28;45398;-76
2023/01/19 12:13:47;;;;;;;;;13.75;13.75;;;;;6.38;65.62;100416.75;5025380;28;45321;-77
2023/01/19 12:16:16;;;;;;;;;18.25;16.75;;;;;6.42;65.76;100407.72;5002033;28;45460;-78
2023/01/19 12:18:47;;;;;;;;;13.75;13.75;;;;;6.26;66.18;100379.88;5018650;28;45546;-80
2023/01/19 12:21:12;;;;;;;;;19.00;15.25;;;;;6.32;65.89;100372.53;5018311;28;46154;-77
2023/01/19 12:23:58;;;;;;;;;15.25;15.00;;;;;6.44;65.77;100395.22;5017874;28;45321;-76
2023/01/19 12:26:28;;;;;;;;;14.75;14.00;;;;;6.29;66.37;100370.00;5018523;28;45545;-79
2023/01/19 12:28:57;;;;;;;;;19.25;15.00;;;;;6.28;66.29;100375.38;4999016;28;46485;-77
2023/01/19 12:31:23;;;;;;;;;17.00;15.00;;;;;6.34;66.26;100394.66;5017425;28;45436;-77
2023/01/19 12:33:50;;;;;;;;;11.00;10.50;;;;;6.28;65.92;100386.91;5017671;28;45343;-77
2023/01/19 12:36:15;;;;;;;;;16.00;13.75;;;;;6.38;66.42;100377.66;5017162;28;45507;-80
2023/01/19 12:38:43;;;;;;;;;18.75;15.75;;;;;6.36;66.42;100379.53;5017079;28;45439;-79
2023/01/19 12:41:28;;;;;;;;;15.75;15.00;;;;;6.21;66.54;100377.34;4995022;28;48434;-79
2023/01/19 12:44:18;;;;;;;;;14.25;11.50;;;;;6.31;66.58;100377.91;5007838;28;45366;-78
2023/01/19 12:47:02;;;;;;;;;17.75;16.25;;;;;6.39;66.19;100376.72;5008413;28;45416;-80
2023/01/19 12:49:36;;;;;;;;;22.50;20.00;;;;;6.46;66.22;100374.75;5009974;28;45408;-79
2023/01/19 12:52:39;;;;;;;;;17.50;15.50;;;;;6.40;65.60;100354.50;5016742;28;45447;-81
2023/01/19 12:55:19;;;;;;;;;16.50;13.00;;;;;6.65;65.76;100372.28;5013309;28;45231;-84
2023/01/19 12:57:53;;;;;;;;;19.25;19.25;;;;;6.56;65.46;100372.59;5017833;28;45403;-84
2023/01/19 13:00:22;;;;;;;;;19.50;18.25;;;;;6.58;65.50;100378.75;5015526;28;45548;-82
2023/01/19 13:02:50;;;;;;;;;17.50;15.75;;;;;6.56;65.76;100375.28;5010988;28;45942;-82
2023/01/19 13:05:39;;;;;;;;;19.25;19.25;;;;;6.57;65.97;100377.88;5015142;28;45475;-78
2023/01/19 13:08:04;;;;;;;;;20.00;16.25;;;;;6.60;65.42;100368.94;5000062;28;45718;-81
2023/01/19 13:10:51;;;;;;;;;21.00;19.00;;;;;6.62;65.63;100370.63;5011879;28;45471;-83
2023/01/19 13:13:38;;;;;;;;;22.75;20.75;;;;;6.61;65.67;100352.91;5017116;28;45427;-82
2023/01/19 13:16:26;;;;;;;;;18.75;18.75;;;;;6.50;65.94;100362.19;5004457;28;45490;-80
2023/01/19 13:18:59;;;;;;;;;23.25;18.50;;;;;6.39;65.58;100360.75;5005328;28;45356;-83
2023/01/19 13:21:42;;;;;;;;;16.75;16.25;;;;;6.33;65.74;100355.66;5015307;28;45432;-81
2023/01/19 13:24:10;;;;;;;;;22.75;20.50;;;;;6.41;65.68;100358.91;5004692;28;47674;-79
2023/01/19 13:26:38;;;;;;;;;19.25;17.50;;;;;6.27;65.91;100328.38;5025708;28;45534;-80
2023/01/19 13:29:04;;;;;;;;;23.50;20.75;;;;;6.39;66.03;100358.09;5016403;28;45400;-82
2023/01/19 13:31:41;;;;;;;;;28.50;23.00;;;;;6.29;65.65;100335.41;5016990;28;45387;-83
2023/01/19 13:34:17;;;;;;;;;25.00;20.50;;;;;6.22;65.67;100331.19;5015351;28;47562;-82
2023/01/19 13:36:45;;;;;;;;;23.00;18.75;;;;;6.21;66.39;100345.41;5016609;28;45238;-82
2023/01/19 13:39:16;;;;;;;;;18.00;16.25;;;;;6.12;66.63;100355.53;5016512;28;45487;-80
2023/01/19 13:41:42;;;;;;;;;19.50;19.50;;;;;6.06;66.76;100337.97;5016622;28;45231;-80
2023/01/19 13:44:22;;;;;;;;;17.75;17.75;;;;;6.11;66.23;100346.69;5014438;28;46451;-82
2023/01/19 13:46:50;;;;;;;;;24.25;18.50;;;;;5.93;65.95;100316.25;5016388;28;45354;-82
2023/01/19 13:49:35;;;;;;;;;15.50;14.50;;;;;6.08;66.31;100346.78;5016770;28;45259;-81
2023/01/19 13:52:13;;;;;;;;;19.75;15.50;;;;;6.11;66.64;100341.34;5016491;28;45454;-80
2023/01/19 13:54:58;;;;;;;;;18.75;14.25;;;;;5.94;65.96;100315.31;5016113;28;45471;-79
2023/01/19 13:57:28;;;;;;;;;18.75;17.75;;;;;5.89;66.25;100287.97;5016344;28;45462;-78
2023/01/19 14:00:10;;;;;;;;;19.50;18.25;;;;;6.10;66.44;100336.94;4998420;28;45458;-82
2023/01/19 14:02:36;;;;;;;;;15.00;15.00;;;;;5.87;66.35;100319.03;5016050;28;45423;-80
2023/01/19 14:05:24;;;;;;;;;14.75;14.75;;;;;5.90;66.89;100320.78;5016189;28;46267;-80
2023/01/19 14:08:19;;;;;;;;;15.50;13.00;;;;;5.95;66.35;100333.03;5016764;28;45328;-84
2023/01/19 14:10:50;;;;;;;;;15.25;15.00;;;;;5.96;66.25;100334.75;5005360;28;45564;-81
2023/01/19 14:13:25;;;;;;;;;14.75;13.25;;;;;5.92;66.06;100332.25;5017273;28;45581;-81
2023/01/19 14:15:54;;;;;;;;;13.75;13.75;;;;;5.82;66.42;100323.66;5015890;28;45364;-83
2023/01/19 14:18:24;;;;;;;;;19.00;18.75;;;;;5.74;66.01;100296.44;5002974;28;45579;-82
2023/01/19 14:21:20;;;;;;;;;18.50;14.75;;;;;5.92;66.54;100319.81;4998080;28;45369;-82
2023/01/19 14:24:05;;;;;;;;;17.25;16.75;;;;;5.96;66.11;100332.06;5016144;28;45662;-83
2023/01/19 14:26:41;;;;;;;;;22.00;15.00;;;;;5.80;67.20;100330.81;5011697;28;45474;-81
2023/01/19 14:29:28;;;;;;;;;20.50;16.75;;;;;5.68;67.22;100339.22;4997269;28;45786;-81
2023/01/19 14:31:59;;;;;;;;;14.00;14.00;;;;;5.42;68.01;100347.16;5016356;28;45420;-82
2023/01/19 14:34:54;;;;;;;;;20.25;16.25;;;;;5.41;68.57;100340.09;4997650;28;46230;-80
2023/01/19 14:37:30;;;;;;;;;16.75;16.75;;;;;5.36;67.95;100342.88;4981918;28;45369;-80
2023/01/19 14:40:16;;;;;;;;;19.25;14.00;;;;;5.23;67.98;100321.13;5015006;28;45612;-80
2023/01/19 14:42:41;;;;;;;;;17.00;14.75;;;;;5.36;68.32;100336.72;5021424;28;45577;-79
2023/01/19 14:45:16;;;;;;;;;15.25;15.25;;;;;5.29;67.78;100318.28;5013695;28;45305;-80
2023/01/19 14:47:44;;;;;;;;;17.75;17.75;;;;;5.15;68.37;100293.06;5015248;28;46398;-81
2023/01/19 14:50:15;;;;;;;;;21.75;17.00;;;;;5.41;68.33;100345.41;5015954;28;45177;-81
2023/01/19 14:52:42;;;;;;;;;18.75;16.75;;;;;5.34;68.79;100342.06;5011535;28;45581;-78
2023/01/19 14:55:24;;;;;;;;;22.00;17.75;;;;;5.25;68.61;100339.69;5013136;28;45653;-80
2023/01/19 14:57:49;;;;;;;;;22.50;17.75;;;;;5.20;68.78;100330.97;4999131;28;48374;-80
2023/01/19 15:00:18;;;;;;;;;20.75;18.75;;;;;5.18;68.54;100327.53;5015631;28;45166;-82
2023/01/19 15:02:44;;;;;;;;;22.00;18.50;;;;;5.27;68.43;100327.22;5015740;28;45296;-81
2023/01/19 15:05:09;;;;;;;;;19.50;15.50;;;;;5.24;68.18;100314.03;5001441;28;46980;-79
2023/01/19 15:07:38;;;;;;;;;22.25;18.00;;;;;5.43;68.28;100338.25;5023868;28;46080;-80
2023/01/19 15:10:08;;;;;;;;;24.00;18.25;;;;;5.48;68.45;100342.50;5015398;28;45242;-79
2023/01/19 15:12:34;;;;;;;;;24.25;22.00;;;;;5.49;68.17;100327.41;5014378;28;45347;-79
2023/01/19 15:15:00;;;;;;;;;22.25;18.25;;;;;5.61;68.22;100333.19;5014019;28;45383;-79
2023/01/19 15:17:25;;;;;;;;;26.00;22.00;;;;;5.58;67.91;100325.34;5015573;28;46716;-81
2023/01/19 15:19:53;;;;;;;;;23.75;21.00;;;;;5.56;67.45;100329.84;5016025;28;45348;-80
2023/01/19 15:22:20;;;;;;;;;27.00;20.75;;;;;5.67;67.74;100343.66;5015197;28;45578;-79
2023/01/19 15:24:46;;;;;;;;;14.25;14.25;;;;;5.64;67.64;100343.75;4997568;28;46946;-81
2023/01/19 15:27:12;;;;;;;;;22.50;21.25;;;;;5.62;67.88;100339.38;5015464;28;46041;-81
2023/01/19 15:29:39;;;;;;;;;21.25;21.00;;;;;5.56;67.29;100321.84;5015988;28;45408;-81
2023/01/19 15:32:09;;;;;;;;;22.00;21.50;;;;;5.52;67.31;100336.19;5014521;28;45375;-81
2023/01/19 15:34:34;;;;;;;;;22.00;18.25;;;;;5.23;68.27;100328.22;5015390;28;45174;-76
2023/01/19 15:37:00;;;;;;;;;17.00;15.50;;;;;5.19;68.64;100342.53;5014513;28;45488;-73
2023/01/19 15:39:25;;;;;;;;;21.50;17.00;;;;;5.18;69.22;100351.44;5014994;28;45333;-83
2023/01/19 15:41:52;;;;;;;;;25.00;18.75;;;;;5.16;69.88;100355.91;5015244;28;45632;-81
2023/01/19 15:44:17;;;;;;;;;23.75;19.25;;;;;5.27;69.09;100361.78;5018528;28;45590;-79
2023/01/19 15:46:42;;;;;;;;;23.50;20.00;;;;;5.27;69.07;100356.47;5018758;28;46052;-79
2023/01/19 15:49:08;;;;;;;;;18.50;18.00;;;;;5.24;68.96;100352.09;5019723;28;45478;-81
2023/01/19 15:51:33;;;;;;;;;20.00;20.00;;;;;5.29;68.91;100366.13;5018483;28;45556;-81
2023/01/19 15:53:58;;;;;;;;;24.75;24.75;;;;;5.26;68.93;100338.78;5019237;28;45451;-79
2023/01/19 15:56:26;;;;;;;;;29.50;26.50;;;;;5.43;68.94;100367.50;5017626;28;46147;-77
2023/01/19 15:58:53;;;;;;;;;25.00;22.50;;;;;5.28;69.18;100347.56;5019536;28;45549;-79
2023/01/19 16:01:21;;;;;;;;;27.00;21.00;;;;;5.39;69.02;100366.72;5018304;28;45482;-80
2023/01/19 16:03:47;;;;;;;;;21.25;21.25;;;;;5.44;69.41;100361.25;5028018;28;45391;-79
2023/01/19 16:06:15;;;;;;;;;19.25;16.25;;;;;5.38;68.89;100353.47;5037988;28;45353;-79
2023/01/19 16:08:41;;;;;;;;;16.25;14.00;;;;;5.37;68.73;100349.06;5008240;28;45986;-78
2023/01/19 16:11:09;;;;;;;;;18.50;18.50;;;;;5.48;69.05;100369.09;5027941;28;45431;-78
2023/01/19 16:13:35;;;;;;;;;19.00;17.00;;;;;5.53;68.58;100372.47;5010784;28;45252;-78
2023/01/19 16:16:02;;;;;;;;;23.50;18.50;;;;;5.50;69.00;100356.63;5029256;28;45202;-78
2023/01/19 16:18:27;;;;;;;;;25.25;22.00;;;;;5.30;69.39;100329.78;5029401;28;45269;-78
2023/01/19 16:20:53;;;;;;;;;18.00;16.25;;;;;5.56;68.85;100372.38;5027199;28;45481;-76
2023/01/19 16:23:18;;;;;;;;;21.75;18.75;;;;;5.48;69.22;100373.53;5020085;28;45567;-78
2023/01/19 16:25:43;;;;;;;;;17.25;16.75;;;;;5.45;69.31;100373.63;5023756;28;45313;-78
2023/01/19 16:28:09;;;;;;;;;19.75;17.00;;;;;5.34;68.97;100355.34;5023807;28;45142;-79
2023/01/19 16:30:34;;;;;;;;;21.75;15.00;;;;;5.27;69.59;100370.59;5024167;28;45316;-79
2023/01/19 16:33:00;;;;;;;;;16.75;14.50;;;;;5.23;70.05;100379.59;5025369;28;45339;-80
2023/01/19 16:35:25;;;;;;;;;19.75;18.25;;;;;5.13;69.93;100364.84;5014571;28;45654;-78
2023/01/19 16:37:51;;;;;;;;;15.25;15.25;;;;;5.00;69.99;100344.88;5007633;28;45490;-78
2023/01/19 16:40:19;;;;;;;;;22.50;20.75;;;;;5.18;69.55;100385.97;5026869;28;45545;-79
2023/01/19 16:42:46;;;;;;;;;23.25;18.00;;;;;5.19;70.35;100388.56;5016410;28;46427;-79
2023/01/19 16:45:11;;;;;;;;;20.50;19.25;;;;;5.27;70.72;100391.84;5007485;28;48011;-77
2023/01/19 16:47:38;;;;;;;;;17.50;17.50;;;;;5.25;69.90;100387.53;5025948;28;45397;-79
2023/01/19 16:50:04;;;;;;;;;25.25;21.00;;;;;5.21;70.45;100394.72;5025448;28;45322;-79
2023/01/19 16:52:30;;;;;;;;;3.25;3.00;;;;;5.20;70.26;100403.59;5019613;28;45318;-80
2023/01/19 16:54:55;;;;;;;;;18.75;18.00;;;;;5.21;70.50;100397.38;5021971;28;45466;-80
2023/01/19 16:57:20;;;;;;;;;25.00;18.50;;;;;5.11;70.68;100382.59;5027886;28;44814;-78
2023/01/19 16:59:46;;;;;;;;;18.50;18.50;;;;;4.98;70.92;100375.06;5010808;28;45404;-78
2023/01/19 17:02:11;;;;;;;;;19.75;17.25;;;;;5.09;71.16;100405.72;5015042;28;45790;-77